A.m.k. Marin — V3YO4 — position and weather

sailwx.info

Track history (hours):
 
Tides and Currents Weather Stations Pressure Air Temp Water Temp Dewpoint Dewpoint Depression Visibility Wind Speed Wind Dir Waves Ship Positions

A.m.k. Marin

Last reported at 2018-Jun-09 16:26 UTC. Time now 2018-Jun-19 06:59 UTC.
Position N 34°02' E 034°34'.
Warning: this ship's position is 9 days out of date.

Length 105 m; draft 7 m.

Type: Cargo ship. MMSI: 312616000.

Date/timePositionNaut miles runAvg speedWind from/ knotsBaromVisibWave heightAir tempDewpointWater temp
2018-Jun-09 16:26N 34°02' E 034°34'4 9.8
2018-Jun-09 16:00N 34°03' E 034°29'10 9.7
2018-Jun-09 15:00N 34°06' E 034°17'6 9.8
2018-Jun-09 14:21N 34°07' E 034°10'16 9.9
2018-Jun-09 12:42N 34°11' E 033°51'76 9.9
2018-Jun-09 05:03N 34°30' E 032°22'0 9.7
2018-Jun-09 05:01N 34°31' E 032°22'130 9.0
2018-Jun-08 14:37N 35°36' E 030°05'2 9.7
2018-Jun-08 14:23N 35°37' E 030°03'4 9.7
2018-Jun-08 14:00N 35°39' E 029°59'5 9.6
2018-Jun-08 13:30N 35°42' E 029°54'5 9.5
2018-Jun-08 13:00N 35°44' E 029°48'5 9.5
2018-Jun-08 12:30N 35°47' E 029°43'211 9.1
2018-Jun-07 13:20N 37°32' E 025°55'  
Track history (hours):
 
Tides and Currents Weather Stations Pressure Air Temp Water Temp Dewpoint Dewpoint Depression Visibility Wind Speed Wind Dir Waves Ship Positions

A.m.k. Marin

Last reported at 2018-Jun-09 16:26 UTC. Time now 2018-Jun-19 06:59 UTC.
Position N 34°02' E 034°34'.
Warning: this ship's position is 9 days out of date.

Length 105 m; draft 7 m.

Type: Cargo ship. MMSI: 312616000.

Date/timePositionNaut miles runAvg speedWind from/ knotsBaromVisibWave heightAir tempDewpointWater temp
2018-Jun-09 16:26N 34°02' E 034°34'4 9.8
2018-Jun-09 16:00N 34°03' E 034°29'10 9.7
2018-Jun-09 15:00N 34°06' E 034°17'6 9.8
2018-Jun-09 14:21N 34°07' E 034°10'16 9.9
2018-Jun-09 12:42N 34°11' E 033°51'76 9.9
2018-Jun-09 05:03N 34°30' E 032°22'0 9.7
2018-Jun-09 05:01N 34°31' E 032°22'130 9.0
2018-Jun-08 14:37N 35°36' E 030°05'2 9.7
2018-Jun-08 14:23N 35°37' E 030°03'4 9.7
2018-Jun-08 14:00N 35°39' E 029°59'5 9.6
2018-Jun-08 13:30N 35°42' E 029°54'5 9.5
2018-Jun-08 13:00N 35°44' E 029°48'5 9.5
2018-Jun-08 12:30N 35°47' E 029°43'211 9.1
2018-Jun-07 13:20N 37°32' E 025°55'  

Dump ship's entire track history